sensor_id;sensor_type;location;lat;lon;timestamp;P1;durP1;ratioP1;P2;durP2;ratioP2
4096;SDS011;2062;50.694;7.246;2023-03-14T00:00:51;5.40;;;0.80;;
4096;SDS011;2062;50.694;7.246;2023-03-14T00:03:18;5.07;;;0.70;;
4096;SDS011;2062;50.694;7.246;2023-03-14T00:05:45;5.20;;;0.80;;
4096;SDS011;2062;50.694;7.246;2023-03-14T00:08:12;4.03;;;0.80;;
4096;SDS011;2062;50.694;7.246;2023-03-14T00:10:40;4.30;;;0.90;;
4096;SDS011;2062;50.694;7.246;2023-03-14T00:13:07;6.30;;;1.00;;
4096;SDS011;2062;50.694;7.246;2023-03-14T00:15:34;7.30;;;0.90;;
4096;SDS011;2062;50.694;7.246;2023-03-14T00:18:02;5.65;;;1.00;;
4096;SDS011;2062;50.694;7.246;2023-03-14T00:20:29;5.68;;;0.80;;
4096;SDS011;2062;50.694;7.246;2023-03-14T00:22:56;5.75;;;0.90;;
4096;SDS011;2062;50.694;7.246;2023-03-14T00:25:23;4.85;;;1.10;;
4096;SDS011;2062;50.694;7.246;2023-03-14T00:27:50;6.27;;;0.77;;
4096;SDS011;2062;50.694;7.246;2023-03-14T00:30:18;6.28;;;1.10;;
4096;SDS011;2062;50.694;7.246;2023-03-14T00:32:45;5.32;;;0.80;;
4096;SDS011;2062;50.694;7.246;2023-03-14T00:35:13;6.03;;;0.93;;
4096;SDS011;2062;50.694;7.246;2023-03-14T00:37:41;6.30;;;0.90;;
4096;SDS011;2062;50.694;7.246;2023-03-14T00:40:09;5.13;;;0.80;;
4096;SDS011;2062;50.694;7.246;2023-03-14T00:42:36;6.55;;;1.25;;
4096;SDS011;2062;50.694;7.246;2023-03-14T00:45:03;6.65;;;0.90;;
4096;SDS011;2062;50.694;7.246;2023-03-14T00:47:32;5.72;;;1.15;;
4096;SDS011;2062;50.694;7.246;2023-03-14T00:49:59;4.57;;;0.70;;
4096;SDS011;2062;50.694;7.246;2023-03-14T00:52:27;4.67;;;1.00;;
4096;SDS011;2062;50.694;7.246;2023-03-14T00:54:54;6.20;;;0.77;;
4096;SDS011;2062;50.694;7.246;2023-03-14T00:57:21;5.65;;;1.00;;
4096;SDS011;2062;50.694;7.246;2023-03-14T00:59:50;4.55;;;0.80;;
4096;SDS011;2062;50.694;7.246;2023-03-14T01:02:17;4.00;;;0.68;;
4096;SDS011;2062;50.694;7.246;2023-03-14T01:04:44;6.00;;;0.80;;
4096;SDS011;2062;50.694;7.246;2023-03-14T01:07:14;5.13;;;1.00;;
4096;SDS011;2062;50.694;7.246;2023-03-14T01:09:42;8.52;;;0.90;;
4096;SDS011;2062;50.694;7.246;2023-03-14T01:12:09;4.47;;;0.73;;
4096;SDS011;2062;50.694;7.246;2023-03-14T01:14:36;4.50;;;0.70;;
4096;SDS011;2062;50.694;7.246;2023-03-14T01:17:03;8.10;;;0.90;;
4096;SDS011;2062;50.694;7.246;2023-03-14T01:19:30;5.05;;;0.75;;
4096;SDS011;2062;50.694;7.246;2023-03-14T01:21:57;6.50;;;0.93;;
4096;SDS011;2062;50.694;7.246;2023-03-14T01:24:24;6.97;;;0.95;;
4096;SDS011;2062;50.694;7.246;2023-03-14T01:26:52;7.70;;;1.13;;
4096;SDS011;2062;50.694;7.246;2023-03-14T01:29:19;8.23;;;1.07;;
4096;SDS011;2062;50.694;7.246;2023-03-14T01:31:46;4.78;;;0.80;;
4096;SDS011;2062;50.694;7.246;2023-03-14T01:34:14;6.15;;;1.00;;
4096;SDS011;2062;50.694;7.246;2023-03-14T01:36:41;4.28;;;0.75;;
4096;SDS011;2062;50.694;7.246;2023-03-14T01:39:08;5.47;;;0.90;;
4096;SDS011;2062;50.694;7.246;2023-03-14T01:41:35;5.90;;;0.80;;
4096;SDS011;2062;50.694;7.246;2023-03-14T01:44:03;4.57;;;0.85;;
4096;SDS011;2062;50.694;7.246;2023-03-14T01:46:32;7.13;;;1.08;;
4096;SDS011;2062;50.694;7.246;2023-03-14T01:49:04;5.78;;;1.05;;
4096;SDS011;2062;50.694;7.246;2023-03-14T01:51:36;4.20;;;0.90;;
4096;SDS011;2062;50.694;7.246;2023-03-14T01:54:10;7.70;;;0.90;;
4096;SDS011;2062;50.694;7.246;2023-03-14T01:56:42;5.00;;;0.68;;
4096;SDS011;2062;50.694;7.246;2023-03-14T01:59:13;6.28;;;0.82;;
4096;SDS011;2062;50.694;7.246;2023-03-14T02:01:41;6.10;;;0.80;;
4096;SDS011;2062;50.694;7.246;2023-03-14T02:04:11;6.80;;;1.08;;
4096;SDS011;2062;50.694;7.246;2023-03-14T02:06:41;7.27;;;1.00;;
4096;SDS011;2062;50.694;7.246;2023-03-14T02:09:12;9.48;;;1.00;;
4096;SDS011;2062;50.694;7.246;2023-03-14T02:11:40;6.38;;;1.20;;
4096;SDS011;2062;50.694;7.246;2023-03-14T02:14:07;8.35;;;0.90;;
4096;SDS011;2062;50.694;7.246;2023-03-14T02:16:41;5.07;;;0.80;;
4096;SDS011;2062;50.694;7.246;2023-03-14T02:19:08;4.27;;;0.77;;
4096;SDS011;2062;50.694;7.246;2023-03-14T02:21:38;8.00;;;0.88;;
4096;SDS011;2062;50.694;7.246;2023-03-14T02:24:16;6.68;;;1.00;;
4096;SDS011;2062;50.694;7.246;2023-03-14T02:29:40;4.15;;;0.70;;
4096;SDS011;2062;50.694;7.246;2023-03-14T02:32:12;4.03;;;0.80;;
4096;SDS011;2062;50.694;7.246;2023-03-14T02:34:41;5.07;;;0.85;;
4096;SDS011;2062;50.694;7.246;2023-03-14T02:37:09;6.57;;;1.10;;
4096;SDS011;2062;50.694;7.246;2023-03-14T02:39:38;8.80;;;1.00;;
4096;SDS011;2062;50.694;7.246;2023-03-14T02:42:07;6.57;;;0.70;;
4096;SDS011;2062;50.694;7.246;2023-03-14T02:44:36;7.00;;;0.73;;
4096;SDS011;2062;50.694;7.246;2023-03-14T02:47:13;9.93;;;1.15;;
4096;SDS011;2062;50.694;7.246;2023-03-14T02:49:40;8.05;;;0.90;;
4096;SDS011;2062;50.694;7.246;2023-03-14T02:52:07;6.95;;;0.90;;
4096;SDS011;2062;50.694;7.246;2023-03-14T02:54:35;6.25;;;0.88;;
4096;SDS011;2062;50.694;7.246;2023-03-14T02:57:02;7.37;;;1.00;;
4096;SDS011;2062;50.694;7.246;2023-03-14T02:59:29;7.80;;;0.80;;
4096;SDS011;2062;50.694;7.246;2023-03-14T03:01:57;9.73;;;1.00;;
4096;SDS011;2062;50.694;7.246;2023-03-14T03:04:26;7.60;;;0.88;;
4096;SDS011;2062;50.694;7.246;2023-03-14T03:06:53;7.80;;;1.02;;
4096;SDS011;2062;50.694;7.246;2023-03-14T03:09:20;6.73;;;0.83;;
4096;SDS011;2062;50.694;7.246;2023-03-14T03:11:47;8.98;;;1.00;;
4096;SDS011;2062;50.694;7.246;2023-03-14T03:14:14;8.48;;;1.02;;
4096;SDS011;2062;50.694;7.246;2023-03-14T03:16:41;6.78;;;0.98;;
4096;SDS011;2062;50.694;7.246;2023-03-14T03:19:09;7.88;;;0.88;;
4096;SDS011;2062;50.694;7.246;2023-03-14T03:21:36;6.73;;;0.87;;
4096;SDS011;2062;50.694;7.246;2023-03-14T03:24:03;4.88;;;0.90;;
4096;SDS011;2062;50.694;7.246;2023-03-14T03:26:30;8.98;;;0.90;;
4096;SDS011;2062;50.694;7.246;2023-03-14T03:28:57;4.28;;;0.75;;
4096;SDS011;2062;50.694;7.246;2023-03-14T03:31:23;7.03;;;0.95;;
4096;SDS011;2062;50.694;7.246;2023-03-14T03:33:50;4.57;;;0.80;;
4096;SDS011;2062;50.694;7.246;2023-03-14T03:36:21;8.32;;;1.17;;
4096;SDS011;2062;50.694;7.246;2023-03-14T03:38:49;6.13;;;0.85;;
4096;SDS011;2062;50.694;7.246;2023-03-14T03:41:15;11.45;;;1.02;;
4096;SDS011;2062;50.694;7.246;2023-03-14T03:43:42;6.88;;;0.90;;
4096;SDS011;2062;50.694;7.246;2023-03-14T03:46:09;7.13;;;0.80;;
4096;SDS011;2062;50.694;7.246;2023-03-14T03:48:36;6.65;;;1.00;;
4096;SDS011;2062;50.694;7.246;2023-03-14T03:51:03;6.03;;;0.90;;
4096;SDS011;2062;50.694;7.246;2023-03-14T03:53:32;6.80;;;0.93;;
4096;SDS011;2062;50.694;7.246;2023-03-14T03:55:59;6.10;;;0.73;;
4096;SDS011;2062;50.694;7.246;2023-03-14T03:58:27;8.70;;;0.80;;
4096;SDS011;2062;50.694;7.246;2023-03-14T04:00:54;6.25;;;0.77;;
4096;SDS011;2062;50.694;7.246;2023-03-14T04:03:21;6.07;;;0.73;;
4096;SDS011;2062;50.694;7.246;2023-03-14T04:05:57;5.47;;;0.85;;
4096;SDS011;2062;50.694;7.246;2023-03-14T04:08:24;6.15;;;1.20;;
4096;SDS011;2062;50.694;7.246;2023-03-14T04:10:55;6.60;;;1.00;;
4096;SDS011;2062;50.694;7.246;2023-03-14T04:13:22;5.13;;;0.68;;
4096;SDS011;2062;50.694;7.246;2023-03-14T04:15:50;5.03;;;0.80;;
4096;SDS011;2062;50.694;7.246;2023-03-14T04:18:17;6.47;;;0.70;;
4096;SDS011;2062;50.694;7.246;2023-03-14T04:20:44;4.35;;;0.70;;
4096;SDS011;2062;50.694;7.246;2023-03-14T04:23:11;6.50;;;0.73;;
4096;SDS011;2062;50.694;7.246;2023-03-14T04:25:38;4.78;;;0.60;;
4096;SDS011;2062;50.694;7.246;2023-03-14T04:28:06;3.55;;;0.77;;
4096;SDS011;2062;50.694;7.246;2023-03-14T04:30:33;3.03;;;0.70;;
4096;SDS011;2062;50.694;7.246;2023-03-14T04:33:00;5.53;;;0.77;;
4096;SDS011;2062;50.694;7.246;2023-03-14T04:35:29;3.03;;;0.40;;
4096;SDS011;2062;50.694;7.246;2023-03-14T04:37:57;7.55;;;0.80;;
4096;SDS011;2062;50.694;7.246;2023-03-14T04:40:24;3.65;;;0.50;;
4096;SDS011;2062;50.694;7.246;2023-03-14T04:42:51;4.15;;;0.50;;
4096;SDS011;2062;50.694;7.246;2023-03-14T04:45:20;3.85;;;0.70;;
4096;SDS011;2062;50.694;7.246;2023-03-14T04:47:47;3.57;;;0.60;;
4096;SDS011;2062;50.694;7.246;2023-03-14T04:50:14;3.10;;;0.40;;
4096;SDS011;2062;50.694;7.246;2023-03-14T04:52:41;4.90;;;0.60;;
4096;SDS011;2062;50.694;7.246;2023-03-14T04:55:08;3.08;;;0.47;;
4096;SDS011;2062;50.694;7.246;2023-03-14T04:57:35;2.97;;;0.40;;
4096;SDS011;2062;50.694;7.246;2023-03-14T05:00:02;3.30;;;0.40;;
4096;SDS011;2062;50.694;7.246;2023-03-14T05:02:34;1.73;;;0.28;;
4096;SDS011;2062;50.694;7.246;2023-03-14T05:05:01;2.28;;;0.30;;
4096;SDS011;2062;50.694;7.246;2023-03-14T05:07:28;3.35;;;0.30;;
4096;SDS011;2062;50.694;7.246;2023-03-14T05:09:55;2.05;;;0.30;;
4096;SDS011;2062;50.694;7.246;2023-03-14T05:12:22;1.67;;;0.27;;
4096;SDS011;2062;50.694;7.246;2023-03-14T05:14:49;1.00;;;0.20;;
4096;SDS011;2062;50.694;7.246;2023-03-14T05:17:16;2.03;;;0.40;;
4096;SDS011;2062;50.694;7.246;2023-03-14T05:19:45;1.95;;;0.30;;
4096;SDS011;2062;50.694;7.246;2023-03-14T05:22:12;1.58;;;0.30;;
4096;SDS011;2062;50.694;7.246;2023-03-14T05:24:39;1.17;;;0.20;;
4096;SDS011;2062;50.694;7.246;2023-03-14T05:27:06;2.08;;;0.30;;
4096;SDS011;2062;50.694;7.246;2023-03-14T05:29:33;1.30;;;0.25;;
4096;SDS011;2062;50.694;7.246;2023-03-14T05:32:00;1.13;;;0.20;;
4096;SDS011;2062;50.694;7.246;2023-03-14T05:34:27;2.00;;;0.20;;
4096;SDS011;2062;50.694;7.246;2023-03-14T05:36:55;1.00;;;0.20;;
4096;SDS011;2062;50.694;7.246;2023-03-14T05:39:22;1.05;;;0.20;;
4096;SDS011;2062;50.694;7.246;2023-03-14T05:41:49;1.10;;;0.20;;
4096;SDS011;2062;50.694;7.246;2023-03-14T05:44:16;1.65;;;0.30;;
4096;SDS011;2062;50.694;7.246;2023-03-14T05:46:43;1.30;;;0.20;;
4096;SDS011;2062;50.694;7.246;2023-03-14T05:49:10;1.83;;;0.23;;
4096;SDS011;2062;50.694;7.246;2023-03-14T05:51:37;0.98;;;0.20;;
4096;SDS011;2062;50.694;7.246;2023-03-14T05:54:05;1.10;;;0.20;;
4096;SDS011;2062;50.694;7.246;2023-03-14T05:56:32;1.23;;;0.38;;
4096;SDS011;2062;50.694;7.246;2023-03-14T05:58:59;1.52;;;0.30;;
4096;SDS011;2062;50.694;7.246;2023-03-14T06:01:28;1.80;;;0.27;;
4096;SDS011;2062;50.694;7.246;2023-03-14T06:03:55;1.40;;;0.30;;
4096;SDS011;2062;50.694;7.246;2023-03-14T06:06:22;2.17;;;0.25;;
4096;SDS011;2062;50.694;7.246;2023-03-14T06:08:49;1.65;;;0.20;;
4096;SDS011;2062;50.694;7.246;2023-03-14T06:11:17;0.98;;;0.20;;
4096;SDS011;2062;50.694;7.246;2023-03-14T06:13:44;3.80;;;0.20;;
4096;SDS011;2062;50.694;7.246;2023-03-14T06:16:11;2.08;;;0.30;;
4096;SDS011;2062;50.694;7.246;2023-03-14T06:18:39;1.15;;;0.30;;
4096;SDS011;2062;50.694;7.246;2023-03-14T06:21:06;1.10;;;0.20;;
4096;SDS011;2062;50.694;7.246;2023-03-14T06:23:33;1.00;;;0.20;;
4096;SDS011;2062;50.694;7.246;2023-03-14T06:26:00;1.57;;;0.30;;
4096;SDS011;2062;50.694;7.246;2023-03-14T06:28:29;0.93;;;0.20;;
4096;SDS011;2062;50.694;7.246;2023-03-14T06:30:56;0.90;;;0.20;;
4096;SDS011;2062;50.694;7.246;2023-03-14T06:33:22;1.25;;;0.22;;
4096;SDS011;2062;50.694;7.246;2023-03-14T06:35:49;1.38;;;0.20;;
4096;SDS011;2062;50.694;7.246;2023-03-14T06:38:17;1.03;;;0.20;;
4096;SDS011;2062;50.694;7.246;2023-03-14T06:40:43;2.28;;;0.20;;
4096;SDS011;2062;50.694;7.246;2023-03-14T06:43:10;0.95;;;0.20;;
4096;SDS011;2062;50.694;7.246;2023-03-14T06:45:39;0.85;;;0.20;;
4096;SDS011;2062;50.694;7.246;2023-03-14T06:48:05;1.08;;;0.20;;
4096;SDS011;2062;50.694;7.246;2023-03-14T06:50:33;1.17;;;0.20;;
4096;SDS011;2062;50.694;7.246;2023-03-14T06:53:00;0.93;;;0.20;;
4096;SDS011;2062;50.694;7.246;2023-03-14T06:55:27;1.90;;;0.20;;
4096;SDS011;2062;50.694;7.246;2023-03-14T06:57:53;1.88;;;0.30;;
4096;SDS011;2062;50.694;7.246;2023-03-14T07:00:21;0.60;;;0.20;;
4096;SDS011;2062;50.694;7.246;2023-03-14T07:02:49;0.60;;;0.10;;
4096;SDS011;2062;50.694;7.246;2023-03-14T07:05:16;1.05;;;0.20;;
4096;SDS011;2062;50.694;7.246;2023-03-14T07:07:43;2.05;;;0.20;;
4096;SDS011;2062;50.694;7.246;2023-03-14T07:10:10;1.25;;;0.20;;
4096;SDS011;2062;50.694;7.246;2023-03-14T07:12:37;2.35;;;0.30;;
4096;SDS011;2062;50.694;7.246;2023-03-14T07:15:05;1.43;;;0.27;;
4096;SDS011;2062;50.694;7.246;2023-03-14T07:17:32;0.73;;;0.10;;
4096;SDS011;2062;50.694;7.246;2023-03-14T07:20:00;0.80;;;0.20;;
4096;SDS011;2062;50.694;7.246;2023-03-14T07:22:30;1.17;;;0.20;;
4096;SDS011;2062;50.694;7.246;2023-03-14T07:24:57;1.48;;;0.20;;
4096;SDS011;2062;50.694;7.246;2023-03-14T07:27:24;0.87;;;0.20;;
4096;SDS011;2062;50.694;7.246;2023-03-14T07:29:50;0.68;;;0.10;;
4096;SDS011;2062;50.694;7.246;2023-03-14T07:32:17;0.82;;;0.20;;
4096;SDS011;2062;50.694;7.246;2023-03-14T07:34:44;1.63;;;0.20;;
4096;SDS011;2062;50.694;7.246;2023-03-14T07:37:13;1.25;;;0.20;;
4096;SDS011;2062;50.694;7.246;2023-03-14T07:39:40;1.83;;;0.30;;
4096;SDS011;2062;50.694;7.246;2023-03-14T07:42:07;1.05;;;0.20;;
4096;SDS011;2062;50.694;7.246;2023-03-14T07:44:34;1.27;;;0.20;;
4096;SDS011;2062;50.694;7.246;2023-03-14T07:47:01;1.30;;;0.20;;
4096;SDS011;2062;50.694;7.246;2023-03-14T07:49:28;1.23;;;0.30;;
4096;SDS011;2062;50.694;7.246;2023-03-14T07:51:55;1.37;;;0.30;;
4096;SDS011;2062;50.694;7.246;2023-03-14T07:54:23;0.93;;;0.20;;
4096;SDS011;2062;50.694;7.246;2023-03-14T07:56:50;1.58;;;0.25;;
4096;SDS011;2062;50.694;7.246;2023-03-14T07:59:18;1.13;;;0.20;;
4096;SDS011;2062;50.694;7.246;2023-03-14T08:01:45;1.30;;;0.20;;
4096;SDS011;2062;50.694;7.246;2023-03-14T08:04:12;1.30;;;0.20;;
4096;SDS011;2062;50.694;7.246;2023-03-14T08:06:39;1.23;;;0.20;;
4096;SDS011;2062;50.694;7.246;2023-03-14T08:09:06;1.52;;;0.30;;
4096;SDS011;2062;50.694;7.246;2023-03-14T08:11:35;1.13;;;0.20;;
4096;SDS011;2062;50.694;7.246;2023-03-14T08:14:02;1.00;;;0.20;;
4096;SDS011;2062;50.694;7.246;2023-03-14T08:16:28;1.40;;;0.20;;
4096;SDS011;2062;50.694;7.246;2023-03-14T08:18:56;1.00;;;0.20;;
4096;SDS011;2062;50.694;7.246;2023-03-14T08:21:22;1.00;;;0.20;;
4096;SDS011;2062;50.694;7.246;2023-03-14T08:23:49;0.88;;;0.20;;
4096;SDS011;2062;50.694;7.246;2023-03-14T08:26:16;1.02;;;0.20;;
4096;SDS011;2062;50.694;7.246;2023-03-14T08:28:44;1.20;;;0.23;;
4096;SDS011;2062;50.694;7.246;2023-03-14T08:31:12;1.08;;;0.20;;
4096;SDS011;2062;50.694;7.246;2023-03-14T08:33:48;2.13;;;0.30;;
4096;SDS011;2062;50.694;7.246;2023-03-14T08:36:17;1.10;;;0.25;;
4096;SDS011;2062;50.694;7.246;2023-03-14T08:38:45;1.63;;;0.30;;
4096;SDS011;2062;50.694;7.246;2023-03-14T08:41:14;1.60;;;0.30;;
4096;SDS011;2062;50.694;7.246;2023-03-14T08:43:41;0.82;;;0.20;;
4096;SDS011;2062;50.694;7.246;2023-03-14T08:46:10;0.93;;;0.20;;
4096;SDS011;2062;50.694;7.246;2023-03-14T08:48:37;1.13;;;0.20;;
4096;SDS011;2062;50.694;7.246;2023-03-14T08:51:07;1.10;;;0.20;;
4096;SDS011;2062;50.694;7.246;2023-03-14T08:53:37;1.27;;;0.30;;
4096;SDS011;2062;50.694;7.246;2023-03-14T08:56:05;1.27;;;0.30;;
4096;SDS011;2062;50.694;7.246;2023-03-14T08:58:35;1.10;;;0.20;;
4096;SDS011;2062;50.694;7.246;2023-03-14T09:01:24;1.45;;;0.30;;
4096;SDS011;2062;50.694;7.246;2023-03-14T09:03:51;1.42;;;0.30;;
4096;SDS011;2062;50.694;7.246;2023-03-14T09:06:18;1.87;;;0.30;;
4096;SDS011;2062;50.694;7.246;2023-03-14T09:08:45;0.85;;;0.17;;
4096;SDS011;2062;50.694;7.246;2023-03-14T09:11:12;1.63;;;0.28;;
4096;SDS011;2062;50.694;7.246;2023-03-14T09:13:40;1.40;;;0.30;;
4096;SDS011;2062;50.694;7.246;2023-03-14T09:16:10;0.90;;;0.20;;
4096;SDS011;2062;50.694;7.246;2023-03-14T09:18:38;1.60;;;0.20;;
4096;SDS011;2062;50.694;7.246;2023-03-14T09:21:05;0.82;;;0.17;;
4096;SDS011;2062;50.694;7.246;2023-03-14T09:23:32;1.83;;;0.30;;
4096;SDS011;2062;50.694;7.246;2023-03-14T09:26:00;2.00;;;0.28;;
4096;SDS011;2062;50.694;7.246;2023-03-14T09:28:27;1.40;;;0.30;;
4096;SDS011;2062;50.694;7.246;2023-03-14T09:30:54;1.93;;;0.30;;
4096;SDS011;2062;50.694;7.246;2023-03-14T09:33:20;1.38;;;0.20;;
4096;SDS011;2062;50.694;7.246;2023-03-14T09:35:50;4.43;;;0.30;;
4096;SDS011;2062;50.694;7.246;2023-03-14T09:38:17;1.20;;;0.20;;
4096;SDS011;2062;50.694;7.246;2023-03-14T09:40:48;2.00;;;0.30;;
4096;SDS011;2062;50.694;7.246;2023-03-14T09:43:16;2.30;;;0.20;;
4096;SDS011;2062;50.694;7.246;2023-03-14T09:45:43;1.30;;;0.30;;
4096;SDS011;2062;50.694;7.246;2023-03-14T09:48:14;1.27;;;0.22;;
4096;SDS011;2062;50.694;7.246;2023-03-14T09:50:43;1.27;;;0.20;;
4096;SDS011;2062;50.694;7.246;2023-03-14T09:53:16;1.52;;;0.20;;
4096;SDS011;2062;50.694;7.246;2023-03-14T09:55:44;1.13;;;0.20;;
4096;SDS011;2062;50.694;7.246;2023-03-14T09:58:17;1.20;;;0.20;;
4096;SDS011;2062;50.694;7.246;2023-03-14T10:00:46;1.23;;;0.20;;
4096;SDS011;2062;50.694;7.246;2023-03-14T10:03:21;2.28;;;0.50;;
4096;SDS011;2062;50.694;7.246;2023-03-14T10:05:51;1.25;;;0.20;;
4096;SDS011;2062;50.694;7.246;2023-03-14T10:08:20;2.00;;;0.20;;
4096;SDS011;2062;50.694;7.246;2023-03-14T10:10:48;1.58;;;0.22;;
4096;SDS011;2062;50.694;7.246;2023-03-14T10:13:16;2.60;;;0.40;;
4096;SDS011;2062;50.694;7.246;2023-03-14T10:15:47;2.63;;;0.60;;
4096;SDS011;2062;50.694;7.246;2023-03-14T10:18:17;2.75;;;0.60;;
4096;SDS011;2062;50.694;7.246;2023-03-14T10:20:45;2.57;;;0.40;;
4096;SDS011;2062;50.694;7.246;2023-03-14T10:23:23;3.00;;;0.60;;
4096;SDS011;2062;50.694;7.246;2023-03-14T10:26:02;2.53;;;0.50;;
4096;SDS011;2062;50.694;7.246;2023-03-14T10:28:32;2.55;;;0.50;;
4096;SDS011;2062;50.694;7.246;2023-03-14T10:31:03;2.78;;;0.68;;
4096;SDS011;2062;50.694;7.246;2023-03-14T10:33:31;2.50;;;0.60;;
4096;SDS011;2062;50.694;7.246;2023-03-14T10:36:00;2.33;;;0.52;;
4096;SDS011;2062;50.694;7.246;2023-03-14T10:38:29;2.10;;;0.40;;
4096;SDS011;2062;50.694;7.246;2023-03-14T10:40:57;2.90;;;0.60;;
4096;SDS011;2062;50.694;7.246;2023-03-14T10:43:25;2.15;;;0.38;;
4096;SDS011;2062;50.694;7.246;2023-03-14T10:45:57;2.50;;;0.40;;
4096;SDS011;2062;50.694;7.246;2023-03-14T10:48:30;2.25;;;0.40;;
4096;SDS011;2062;50.694;7.246;2023-03-14T10:50:59;2.22;;;0.43;;
4096;SDS011;2062;50.694;7.246;2023-03-14T10:53:35;2.97;;;0.45;;
4096;SDS011;2062;50.694;7.246;2023-03-14T10:56:06;3.17;;;0.50;;
4096;SDS011;2062;50.694;7.246;2023-03-14T10:58:38;3.23;;;0.60;;
4096;SDS011;2062;50.694;7.246;2023-03-14T11:01:27;4.47;;;0.50;;
4096;SDS011;2062;50.694;7.246;2023-03-14T11:04:05;3.15;;;0.40;;
4096;SDS011;2062;50.694;7.246;2023-03-14T11:06:41;2.42;;;0.40;;
4096;SDS011;2062;50.694;7.246;2023-03-14T11:09:14;2.25;;;0.43;;
4096;SDS011;2062;50.694;7.246;2023-03-14T11:11:47;2.70;;;0.40;;
4096;SDS011;2062;50.694;7.246;2023-03-14T11:14:16;2.92;;;0.40;;
4096;SDS011;2062;50.694;7.246;2023-03-14T11:16:53;2.42;;;0.50;;
4096;SDS011;2062;50.694;7.246;2023-03-14T11:19:31;2.15;;;0.40;;
4096;SDS011;2062;50.694;7.246;2023-03-14T11:22:20;3.67;;;0.90;;
4096;SDS011;2062;50.694;7.246;2023-03-14T11:24:54;6.03;;;0.77;;
4096;SDS011;2062;50.694;7.246;2023-03-14T11:27:40;3.22;;;0.60;;
4096;SDS011;2062;50.694;7.246;2023-03-14T11:30:17;4.15;;;0.90;;
4096;SDS011;2062;50.694;7.246;2023-03-14T11:32:46;3.20;;;0.75;;
4096;SDS011;2062;50.694;7.246;2023-03-14T11:35:21;2.90;;;0.82;;
4096;SDS011;2062;50.694;7.246;2023-03-14T11:37:52;2.77;;;0.70;;
4096;SDS011;2062;50.694;7.246;2023-03-14T11:40:23;3.15;;;0.70;;
4096;SDS011;2062;50.694;7.246;2023-03-14T11:43:04;3.58;;;0.80;;
4096;SDS011;2062;50.694;7.246;2023-03-14T11:45:36;4.93;;;0.88;;
4096;SDS011;2062;50.694;7.246;2023-03-14T11:48:12;6.07;;;0.85;;
4096;SDS011;2062;50.694;7.246;2023-03-14T11:50:43;3.53;;;0.93;;
4096;SDS011;2062;50.694;7.246;2023-03-14T11:53:14;3.13;;;0.80;;
4096;SDS011;2062;50.694;7.246;2023-03-14T11:55:45;2.90;;;0.85;;
4096;SDS011;2062;50.694;7.246;2023-03-14T11:58:14;4.05;;;0.90;;
4096;SDS011;2062;50.694;7.246;2023-03-14T12:00:44;4.57;;;0.93;;
4096;SDS011;2062;50.694;7.246;2023-03-14T12:03:14;5.63;;;1.03;;
4096;SDS011;2062;50.694;7.246;2023-03-14T12:05:49;5.18;;;0.90;;
4096;SDS011;2062;50.694;7.246;2023-03-14T12:08:36;3.70;;;0.88;;
4096;SDS011;2062;50.694;7.246;2023-03-14T12:11:18;3.20;;;0.90;;
4096;SDS011;2062;50.694;7.246;2023-03-14T12:13:50;4.10;;;1.08;;
4096;SDS011;2062;50.694;7.246;2023-03-14T12:22:23;4.05;;;1.05;;
4096;SDS011;2062;50.694;7.246;2023-03-14T12:24:53;3.40;;;0.98;;
4096;SDS011;2062;50.694;7.246;2023-03-14T12:27:43;2.63;;;0.40;;
4096;SDS011;2062;50.694;7.246;2023-03-14T12:30:23;1.67;;;0.20;;
4096;SDS011;2062;50.694;7.246;2023-03-14T12:39:19;2.78;;;0.40;;
4096;SDS011;2062;50.694;7.246;2023-03-14T12:41:52;3.88;;;0.63;;
4096;SDS011;2062;50.694;7.246;2023-03-14T12:50:14;4.47;;;0.80;;
4096;SDS011;2062;50.694;7.246;2023-03-14T12:52:49;2.67;;;0.47;;
4096;SDS011;2062;50.694;7.246;2023-03-14T12:55:28;3.70;;;0.70;;
4096;SDS011;2062;50.694;7.246;2023-03-14T12:58:03;3.87;;;0.80;;
4096;SDS011;2062;50.694;7.246;2023-03-14T13:00:40;3.17;;;0.70;;
4096;SDS011;2062;50.694;7.246;2023-03-14T13:03:17;3.20;;;0.75;;
4096;SDS011;2062;50.694;7.246;2023-03-14T13:05:53;3.60;;;0.85;;
4096;SDS011;2062;50.694;7.246;2023-03-14T13:08:36;3.80;;;0.90;;
4096;SDS011;2062;50.694;7.246;2023-03-14T13:11:06;4.40;;;1.30;;
4096;SDS011;2062;50.694;7.246;2023-03-14T13:13:37;4.45;;;1.35;;
4096;SDS011;2062;50.694;7.246;2023-03-14T13:16:12;4.70;;;1.60;;
4096;SDS011;2062;50.694;7.246;2023-03-14T13:18:43;5.07;;;1.75;;
4096;SDS011;2062;50.694;7.246;2023-03-14T13:21:12;6.25;;;1.88;;
4096;SDS011;2062;50.694;7.246;2023-03-14T13:23:42;8.97;;;3.77;;
4096;SDS011;2062;50.694;7.246;2023-03-14T13:26:21;7.20;;;2.38;;
4096;SDS011;2062;50.694;7.246;2023-03-14T13:28:50;7.70;;;2.28;;
4096;SDS011;2062;50.694;7.246;2023-03-14T13:31:20;5.32;;;2.00;;
4096;SDS011;2062;50.694;7.246;2023-03-14T13:33:56;5.20;;;1.42;;
4096;SDS011;2062;50.694;7.246;2023-03-14T13:36:24;5.43;;;1.40;;
4096;SDS011;2062;50.694;7.246;2023-03-14T13:38:55;4.28;;;1.10;;
4096;SDS011;2062;50.694;7.246;2023-03-14T13:41:23;6.88;;;1.30;;
4096;SDS011;2062;50.694;7.246;2023-03-14T13:43:50;8.73;;;1.40;;
4096;SDS011;2062;50.694;7.246;2023-03-14T13:46:19;4.47;;;1.13;;
4096;SDS011;2062;50.694;7.246;2023-03-14T13:48:50;4.50;;;1.20;;
4096;SDS011;2062;50.694;7.246;2023-03-14T13:51:20;5.78;;;1.02;;
4096;SDS011;2062;50.694;7.246;2023-03-14T13:53:50;3.35;;;0.80;;
4096;SDS011;2062;50.694;7.246;2023-03-14T13:56:18;5.03;;;1.20;;
4096;SDS011;2062;50.694;7.246;2023-03-14T13:58:46;3.92;;;1.00;;
4096;SDS011;2062;50.694;7.246;2023-03-14T14:01:14;4.90;;;1.00;;
4096;SDS011;2062;50.694;7.246;2023-03-14T14:03:45;4.70;;;1.13;;
4096;SDS011;2062;50.694;7.246;2023-03-14T14:06:22;5.28;;;1.20;;
4096;SDS011;2062;50.694;7.246;2023-03-14T14:08:53;3.92;;;1.13;;
4096;SDS011;2062;50.694;7.246;2023-03-14T14:11:22;5.93;;;1.30;;
4096;SDS011;2062;50.694;7.246;2023-03-14T14:14:00;4.87;;;1.17;;
4096;SDS011;2062;50.694;7.246;2023-03-14T14:16:27;6.75;;;1.25;;
4096;SDS011;2062;50.694;7.246;2023-03-14T14:18:58;5.00;;;1.05;;
4096;SDS011;2062;50.694;7.246;2023-03-14T14:21:26;5.03;;;1.23;;
4096;SDS011;2062;50.694;7.246;2023-03-14T14:23:53;5.38;;;1.40;;
4096;SDS011;2062;50.694;7.246;2023-03-14T14:26:20;6.30;;;1.20;;
4096;SDS011;2062;50.694;7.246;2023-03-14T14:28:47;5.80;;;1.20;;
4096;SDS011;2062;50.694;7.246;2023-03-14T14:31:25;8.60;;;1.98;;
4096;SDS011;2062;50.694;7.246;2023-03-14T14:33:55;5.93;;;1.50;;
4096;SDS011;2062;50.694;7.246;2023-03-14T14:36:25;6.95;;;1.60;;
4096;SDS011;2062;50.694;7.246;2023-03-14T14:38:57;5.13;;;1.13;;
4096;SDS011;2062;50.694;7.246;2023-03-14T14:41:28;5.57;;;1.10;;
4096;SDS011;2062;50.694;7.246;2023-03-14T14:43:57;3.72;;;1.00;;
4096;SDS011;2062;50.694;7.246;2023-03-14T14:46:26;5.85;;;1.25;;
4096;SDS011;2062;50.694;7.246;2023-03-14T14:48:57;5.43;;;1.10;;
4096;SDS011;2062;50.694;7.246;2023-03-14T14:51:34;3.97;;;1.10;;
4096;SDS011;2062;50.694;7.246;2023-03-14T14:54:12;7.78;;;1.20;;
4096;SDS011;2062;50.694;7.246;2023-03-14T14:56:40;4.97;;;1.05;;
4096;SDS011;2062;50.694;7.246;2023-03-14T14:59:24;6.13;;;1.00;;
4096;SDS011;2062;50.694;7.246;2023-03-14T15:01:55;4.50;;;0.88;;
4096;SDS011;2062;50.694;7.246;2023-03-14T15:04:24;4.97;;;0.90;;
4096;SDS011;2062;50.694;7.246;2023-03-14T15:06:52;3.65;;;0.82;;
4096;SDS011;2062;50.694;7.246;2023-03-14T15:09:19;6.55;;;1.30;;
4096;SDS011;2062;50.694;7.246;2023-03-14T15:11:46;7.18;;;1.40;;
4096;SDS011;2062;50.694;7.246;2023-03-14T15:14:14;8.68;;;1.48;;
4096;SDS011;2062;50.694;7.246;2023-03-14T15:16:41;7.93;;;1.27;;
4096;SDS011;2062;50.694;7.246;2023-03-14T15:19:12;8.07;;;1.10;;
4096;SDS011;2062;50.694;7.246;2023-03-14T15:21:47;9.50;;;1.65;;
4096;SDS011;2062;50.694;7.246;2023-03-14T15:24:14;9.85;;;1.00;;
4096;SDS011;2062;50.694;7.246;2023-03-14T15:26:41;7.55;;;1.42;;
4096;SDS011;2062;50.694;7.246;2023-03-14T15:29:09;6.93;;;1.20;;
4096;SDS011;2062;50.694;7.246;2023-03-14T15:31:37;8.40;;;1.13;;
4096;SDS011;2062;50.694;7.246;2023-03-14T15:43:58;11.27;;;1.10;;
4096;SDS011;2062;50.694;7.246;2023-03-14T15:49:47;9.98;;;1.23;;
4096;SDS011;2062;50.694;7.246;2023-03-14T15:55:35;10.57;;;1.40;;
4096;SDS011;2062;50.694;7.246;2023-03-14T15:58:01;12.57;;;1.30;;
4096;SDS011;2062;50.694;7.246;2023-03-14T16:00:30;7.05;;;1.00;;
4096;SDS011;2062;50.694;7.246;2023-03-14T16:02:57;4.53;;;1.08;;
4096;SDS011;2062;50.694;7.246;2023-03-14T16:05:24;8.77;;;1.33;;